createdAt,value
2023-03-11T00:00:00.710Z,4.7
2023-03-11T00:05:00.761Z,4.7
2023-03-11T00:10:00.827Z,4.7
2023-03-11T00:15:00.767Z,4.7
2023-03-11T00:20:00.747Z,4.6
2023-03-11T00:25:00.868Z,4.7
2023-03-11T00:30:00.746Z,4.7
2023-03-11T00:35:00.693Z,4.6
2023-03-11T00:40:00.705Z,4.6
2023-03-11T00:45:00.777Z,4.6
2023-03-11T00:50:00.703Z,4.6
2023-03-11T00:55:00.693Z,4.6
2023-03-11T01:00:00.721Z,4.7
2023-03-11T01:05:00.769Z,4.6
2023-03-11T01:10:00.786Z,4.6
2023-03-11T01:15:00.832Z,4.6
2023-03-11T01:20:00.824Z,4.6
2023-03-11T01:25:00.743Z,4.6
2023-03-11T01:30:00.709Z,4.7
2023-03-11T01:35:00.752Z,4.7
2023-03-11T01:40:00.718Z,4.6
2023-03-11T01:45:00.721Z,4.7
2023-03-11T01:50:00.806Z,4.7
2023-03-11T01:55:00.850Z,4.7
2023-03-11T02:00:00.789Z,4.7
2023-03-11T02:05:00.771Z,4.7
2023-03-11T02:10:00.747Z,4.7
2023-03-11T02:15:00.744Z,4.7
2023-03-11T02:20:00.759Z,4.7
2023-03-11T02:25:00.820Z,4.7
2023-03-11T02:30:00.820Z,4.6
2023-03-11T02:35:00.719Z,4.6
2023-03-11T02:40:00.718Z,4.6
2023-03-11T02:45:00.756Z,4.6
2023-03-11T02:50:00.742Z,4.6
2023-03-11T02:55:00.781Z,4.6
2023-03-11T03:00:00.774Z,4.6
2023-03-11T03:05:00.699Z,4.6
2023-03-11T03:10:00.719Z,4.6
2023-03-11T03:15:00.752Z,4.7
2023-03-11T03:20:00.785Z,4.7
2023-03-11T03:25:00.768Z,4.7
2023-03-11T03:30:00.787Z,4.6
2023-03-11T03:35:00.769Z,4.7
2023-03-11T03:40:00.779Z,4.6
2023-03-11T03:45:00.693Z,4.7
2023-03-11T03:50:00.717Z,4.6
2023-03-11T03:55:00.788Z,4.7
2023-03-11T04:00:00.764Z,4.6
2023-03-11T04:05:00.852Z,4.6
2023-03-11T04:10:00.699Z,4.6
2023-03-11T04:15:00.689Z,4.6
2023-03-11T04:20:00.774Z,4.6
2023-03-11T04:25:00.823Z,4.6
2023-03-11T04:30:00.793Z,4.5
2023-03-11T04:35:00.769Z,4.5
2023-03-11T04:40:00.763Z,4.5
2023-03-11T04:50:00.830Z,4.5
2023-03-11T04:55:00.710Z,4.5
2023-03-11T05:00:00.667Z,4.5
2023-03-11T05:05:00.787Z,4.5
2023-03-11T05:10:00.813Z,4.5
2023-03-11T05:15:00.755Z,4.5
2023-03-11T05:20:00.759Z,4.5
2023-03-11T05:30:00.843Z,4.5
2023-03-11T05:35:00.689Z,4.5
2023-03-11T05:40:00.847Z,4.5
2023-03-11T05:45:00.782Z,4.5
2023-03-11T05:55:01.133Z,4.5
2023-03-11T06:00:00.860Z,4.5
2023-03-11T06:05:01.003Z,4.6
2023-03-11T06:10:00.749Z,4.6
2023-03-11T06:15:00.753Z,4.6
2023-03-11T06:20:00.783Z,4.5
2023-03-11T06:25:00.766Z,4.5
2023-03-11T06:30:00.917Z,4.5
2023-03-11T06:35:00.819Z,4.6
2023-03-11T06:40:00.794Z,4.6
2023-03-11T06:45:00.767Z,4.6
2023-03-11T06:50:00.762Z,4.6
2023-03-11T06:55:00.754Z,4.6
2023-03-11T07:00:00.826Z,4.5
2023-03-11T07:05:00.734Z,4.5
2023-03-11T07:10:00.967Z,4.5
2023-03-11T07:15:00.845Z,4.5
2023-03-11T07:20:00.732Z,4.5
2023-03-11T07:25:00.726Z,4.5
2023-03-11T07:30:00.767Z,4.5
2023-03-11T07:35:00.806Z,4.5
2023-03-11T07:40:00.739Z,4.5
2023-03-11T07:45:00.766Z,4.6
2023-03-11T07:50:00.823Z,4.5
2023-03-11T07:55:00.707Z,4.6
2023-03-11T08:00:00.758Z,4.6
2023-03-11T08:05:00.771Z,4.6
2023-03-11T08:10:00.781Z,4.6
2023-03-11T08:15:00.733Z,4.6
2023-03-11T08:20:00.796Z,4.5
2023-03-11T08:25:00.733Z,4.5
2023-03-11T08:30:00.724Z,4.6
2023-03-11T08:35:00.788Z,4.5
2023-03-11T08:40:00.735Z,4.6
2023-03-11T08:45:00.748Z,4.6
2023-03-11T08:50:00.738Z,4.6
2023-03-11T08:55:00.722Z,4.6
2023-03-11T09:00:00.741Z,4.6
2023-03-11T09:05:00.890Z,4.5
2023-03-11T09:10:00.806Z,4.6
2023-03-11T09:15:00.752Z,4.6
2023-03-11T09:20:00.684Z,4.6
2023-03-11T09:25:00.723Z,4.6
2023-03-11T09:35:00.780Z,4.7
2023-03-11T09:40:00.734Z,4.7
2023-03-11T09:45:00.741Z,4.7
2023-03-11T09:50:00.734Z,4.7
2023-03-11T09:55:00.794Z,4.7
2023-03-11T10:00:00.758Z,4.7
2023-03-11T10:05:00.742Z,4.8
2023-03-11T10:10:00.768Z,4.7
2023-03-11T10:15:00.744Z,4.7
2023-03-11T10:20:00.787Z,4.8
2023-03-11T10:25:00.711Z,4.7
2023-03-11T10:30:00.731Z,4.8
2023-03-11T10:35:00.699Z,4.9
2023-03-11T10:40:00.783Z,4.8
2023-03-11T10:45:00.689Z,4.9
2023-03-11T10:50:00.727Z,4.9
2023-03-11T10:55:00.766Z,4.8
2023-03-11T11:00:00.742Z,4.7
2023-03-11T11:05:00.691Z,4.8
2023-03-11T11:10:00.724Z,4.8
2023-03-11T11:15:00.772Z,4.8
2023-03-11T11:20:00.710Z,4.9
2023-03-11T11:25:00.781Z,4.9
2023-03-11T11:30:00.799Z,4.9
2023-03-11T11:35:00.752Z,5
2023-03-11T11:40:00.889Z,5
2023-03-11T11:45:00.838Z,4.9
2023-03-11T11:50:00.681Z,4.9
2023-03-11T11:55:00.791Z,5
2023-03-11T12:00:00.793Z,5.1
2023-03-11T12:05:00.812Z,5.1
2023-03-11T12:10:07.231Z,5
2023-03-11T12:15:00.683Z,5
2023-03-11T12:20:00.755Z,5
2023-03-11T12:25:00.808Z,5
2023-03-11T12:30:00.742Z,5.1
2023-03-11T12:35:00.768Z,5.1
2023-03-11T12:40:00.772Z,5.1
2023-03-11T12:45:00.743Z,5.2
2023-03-11T12:50:00.746Z,5
2023-03-11T12:55:00.684Z,5
2023-03-11T13:00:00.715Z,5
2023-03-11T13:05:00.761Z,5.1
2023-03-11T13:10:00.702Z,5
2023-03-11T13:15:02.543Z,5
2023-03-11T13:20:00.723Z,5
2023-03-11T13:25:00.779Z,4.9
2023-03-11T13:30:00.764Z,4.8
2023-03-11T13:35:00.725Z,4.9
2023-03-11T13:40:00.852Z,4.8
2023-03-11T13:45:00.759Z,4.9
2023-03-11T13:50:00.890Z,5
2023-03-11T13:55:00.712Z,5
2023-03-11T14:00:00.645Z,5
2023-03-11T14:05:00.798Z,5.1
2023-03-11T14:10:00.680Z,5.2
2023-03-11T14:15:00.831Z,5.2
2023-03-11T14:20:00.713Z,5.2
2023-03-11T14:25:00.725Z,5.1
2023-03-11T14:30:00.733Z,5.2
2023-03-11T14:35:00.739Z,5.2
2023-03-11T14:40:00.761Z,5.2
2023-03-11T14:45:00.560Z,5
2023-03-11T14:50:00.768Z,5.1
2023-03-11T14:55:00.852Z,5
2023-03-11T15:00:00.752Z,5
2023-03-11T15:05:00.892Z,5.1
2023-03-11T15:10:00.877Z,5.1
2023-03-11T15:15:00.778Z,5.1
2023-03-11T15:20:00.743Z,5.1
2023-03-11T15:25:00.733Z,5.1
2023-03-11T15:30:00.687Z,5
2023-03-11T15:35:00.740Z,5.1
2023-03-11T15:40:00.712Z,5.1
2023-03-11T15:45:00.753Z,5
2023-03-11T15:50:00.777Z,4.9
2023-03-11T15:55:00.724Z,5
2023-03-11T16:00:00.857Z,5
2023-03-11T16:05:00.842Z,5
2023-03-11T16:10:01.720Z,5
2023-03-11T16:15:00.704Z,5
2023-03-11T16:20:00.731Z,5
2023-03-11T16:25:00.758Z,5.1
2023-03-11T16:30:00.742Z,5
2023-03-11T16:35:00.690Z,5
2023-03-11T16:40:00.714Z,5
2023-03-11T16:45:02.822Z,5
2023-03-11T16:50:00.767Z,5
2023-03-11T16:55:00.692Z,5
2023-03-11T17:00:00.719Z,4.9
2023-03-11T17:05:00.787Z,5
2023-03-11T17:10:00.842Z,5
2023-03-11T17:15:00.766Z,5
2023-03-11T17:20:00.734Z,4.9
2023-03-11T17:25:00.740Z,5
2023-03-11T17:30:00.728Z,4.9
2023-03-11T17:35:00.759Z,4.9
2023-03-11T17:40:00.757Z,4.9
2023-03-11T17:45:00.739Z,4.9
2023-03-11T17:50:00.757Z,4.9
2023-03-11T17:55:00.801Z,4.9
2023-03-11T18:00:00.811Z,4.9
2023-03-11T18:05:00.767Z,4.9
2023-03-11T18:10:00.759Z,4.9
2023-03-11T18:15:00.829Z,4.9
2023-03-11T18:20:00.680Z,4.9
2023-03-11T18:25:00.695Z,4.9
2023-03-11T18:30:00.668Z,4.9
2023-03-11T18:35:00.725Z,4.9
2023-03-11T18:40:00.757Z,4.9
2023-03-11T18:45:00.773Z,4.9
2023-03-11T18:50:00.777Z,4.9
2023-03-11T18:55:00.757Z,4.9
2023-03-11T19:00:00.736Z,4.9
2023-03-11T19:05:00.873Z,4.9
2023-03-11T19:10:00.771Z,4.9
2023-03-11T19:15:00.744Z,4.9
2023-03-11T19:20:00.744Z,4.9
2023-03-11T19:25:00.731Z,5
2023-03-11T19:30:00.803Z,5
2023-03-11T19:35:00.776Z,5
2023-03-11T19:40:00.798Z,5
2023-03-11T19:45:00.725Z,5
2023-03-11T19:50:00.728Z,5
2023-03-11T19:55:00.929Z,5
2023-03-11T20:00:00.733Z,5
2023-03-11T20:05:00.888Z,5
2023-03-11T20:10:00.758Z,5
2023-03-11T20:15:00.789Z,5
2023-03-11T20:20:00.755Z,5
2023-03-11T20:25:00.857Z,5
2023-03-11T20:30:00.880Z,5
2023-03-11T20:35:01.104Z,5
2023-03-11T20:40:00.818Z,5
2023-03-11T20:45:00.829Z,5
2023-03-11T20:50:00.907Z,5
2023-03-11T20:55:00.848Z,5
2023-03-11T21:00:00.781Z,5
2023-03-11T21:05:00.833Z,5
2023-03-11T21:10:00.757Z,5
2023-03-11T21:15:00.767Z,5
2023-03-11T21:20:00.801Z,5
2023-03-11T21:25:00.803Z,5
2023-03-11T21:30:00.833Z,5
2023-03-11T21:35:00.842Z,5
2023-03-11T21:40:00.836Z,5
2023-03-11T21:45:00.783Z,5
2023-03-11T21:50:01.316Z,5
2023-03-11T21:55:00.927Z,5
2023-03-11T22:00:00.824Z,5
2023-03-11T22:05:00.853Z,5
2023-03-11T22:10:00.788Z,5
2023-03-11T22:15:00.981Z,5.1
2023-03-11T22:20:00.960Z,5
2023-03-11T22:25:00.708Z,5
2023-03-11T22:30:00.810Z,5
2023-03-11T22:35:00.778Z,5
2023-03-11T22:40:00.766Z,5
2023-03-11T22:45:00.773Z,5
2023-03-11T22:55:00.769Z,5
2023-03-11T23:00:00.750Z,5.1
2023-03-11T23:05:00.785Z,5.1
2023-03-11T23:10:00.747Z,5.1
2023-03-11T23:15:00.745Z,5.1
2023-03-11T23:25:00.981Z,5.1
2023-03-11T23:30:00.734Z,5.2
2023-03-11T23:35:00.699Z,5.2
2023-03-11T23:40:00.779Z,5.2
2023-03-11T23:45:00.770Z,5.2
2023-03-11T23:50:00.820Z,5.2
2023-03-11T23:55:00.774Z,5.2
